createdAt,value
2018-06-03T00:00:24.123Z,4.60
2018-06-03T00:02:52.585Z,4.37
2018-06-03T00:05:20.713Z,4.50
2018-06-03T00:07:49.190Z,4.97
2018-06-03T00:10:17.635Z,5.20
2018-06-03T00:12:46.111Z,4.87
2018-06-03T00:15:14.561Z,4.90
2018-06-03T00:17:43.042Z,4.40
2018-06-03T00:20:11.534Z,5.50
2018-06-03T00:22:39.992Z,4.97
2018-06-03T00:25:08.418Z,5.97
2018-06-03T00:27:36.558Z,5.50
2018-06-03T00:30:05.060Z,5.23
2018-06-03T00:32:33.485Z,5.70
2018-06-03T00:35:01.921Z,5.07
2018-06-03T00:37:30.038Z,5.13
2018-06-03T00:39:58.455Z,5.00
2018-06-03T00:42:26.898Z,5.23
2018-06-03T00:44:55.355Z,5.43
2018-06-03T00:47:23.763Z,4.60
2018-06-03T00:49:52.208Z,4.60
2018-06-03T00:52:20.606Z,4.63
2018-06-03T00:54:49.046Z,4.57
2018-06-03T00:57:17.477Z,4.57
2018-06-03T00:59:45.946Z,4.50
2018-06-03T01:02:14.365Z,4.87
2018-06-03T01:04:42.818Z,4.77
2018-06-03T01:07:11.237Z,4.53
2018-06-03T01:09:39.683Z,5.43
2018-06-03T01:12:08.157Z,4.83
2018-06-03T01:14:36.642Z,4.67
2018-06-03T01:17:09.950Z,4.60
2018-06-03T01:19:38.424Z,4.63
2018-06-03T01:22:06.867Z,4.47
2018-06-03T01:24:35.338Z,4.17
2018-06-03T01:27:03.799Z,4.97
2018-06-03T01:29:32.294Z,4.70
2018-06-03T01:32:00.762Z,4.97
2018-06-03T01:34:29.238Z,5.23
2018-06-03T01:36:57.368Z,5.63
2018-06-03T01:39:26.105Z,5.80
2018-06-03T01:41:54.543Z,5.83
2018-06-03T01:44:22.979Z,6.20
2018-06-03T01:46:51.403Z,5.60
2018-06-03T01:49:19.882Z,5.20
2018-06-03T01:51:48.302Z,5.40
2018-06-03T01:54:16.777Z,4.67
2018-06-03T01:56:45.227Z,5.43
2018-06-03T01:59:13.739Z,4.90
2018-06-03T02:01:42.176Z,5.13
2018-06-03T02:04:10.636Z,4.77
2018-06-03T02:06:39.085Z,5.73
2018-06-03T02:09:07.666Z,5.07
2018-06-03T02:11:36.145Z,5.03
2018-06-03T02:14:04.626Z,5.70
2018-06-03T02:16:33.065Z,5.17
2018-06-03T02:19:01.545Z,5.00
2018-06-03T02:21:30.004Z,4.60
2018-06-03T02:23:58.477Z,4.87
2018-06-03T02:26:26.911Z,4.47
2018-06-03T02:28:55.390Z,5.63
2018-06-03T02:31:23.875Z,5.80
2018-06-03T02:33:52.320Z,5.17
2018-06-03T02:36:20.779Z,5.03
2018-06-03T02:38:49.242Z,4.90
2018-06-03T02:41:17.818Z,4.83
2018-06-03T02:43:46.266Z,5.37
2018-06-03T02:46:14.734Z,5.30
2018-06-03T02:48:43.244Z,5.83
2018-06-03T02:51:11.714Z,6.33
2018-06-03T02:53:39.908Z,6.30
2018-06-03T02:56:08.373Z,5.30
2018-06-03T02:58:36.824Z,5.40
2018-06-03T03:01:05.289Z,5.97
2018-06-03T03:03:33.731Z,6.13
2018-06-03T03:06:02.227Z,5.93
2018-06-03T03:08:30.667Z,6.43
2018-06-03T03:10:59.141Z,5.93
2018-06-03T03:13:27.289Z,5.53
2018-06-03T03:15:55.770Z,5.60
2018-06-03T03:18:24.230Z,5.97
2018-06-03T03:20:52.741Z,6.13
2018-06-03T03:23:21.180Z,5.50
2018-06-03T03:25:49.650Z,6.17
2018-06-03T03:28:18.104Z,6.13
2018-06-03T03:30:46.273Z,6.03
2018-06-03T03:33:14.421Z,6.10
2018-06-03T03:35:42.879Z,6.53
2018-06-03T03:38:11.347Z,6.07
2018-06-03T03:40:39.814Z,6.40
2018-06-03T03:43:08.282Z,6.27
2018-06-03T03:45:36.761Z,6.53
2018-06-03T03:48:05.229Z,7.00
2018-06-03T03:50:33.725Z,5.47
2018-06-03T03:53:02.206Z,5.77
2018-06-03T03:55:30.742Z,6.20
2018-06-03T03:57:59.223Z,6.40
2018-06-03T04:00:27.706Z,5.80
2018-06-03T04:02:56.158Z,6.10
2018-06-03T04:05:24.619Z,5.57
2018-06-03T04:07:53.080Z,5.90
2018-06-03T04:10:21.534Z,5.97
2018-06-03T04:12:49.979Z,6.53
2018-06-03T04:15:18.469Z,5.07
2018-06-03T04:17:47.925Z,6.17
2018-06-03T04:20:16.370Z,5.70
2018-06-03T04:22:44.806Z,5.57
2018-06-03T04:25:13.266Z,5.57
2018-06-03T04:27:41.759Z,6.03
2018-06-03T04:30:10.484Z,5.27
2018-06-03T04:32:38.965Z,5.17
2018-06-03T04:35:07.113Z,6.77
2018-06-03T04:37:35.594Z,6.13
2018-06-03T04:40:04.067Z,5.73
2018-06-03T04:42:32.532Z,5.63
2018-06-03T04:45:00.977Z,5.50
2018-06-03T04:47:29.445Z,6.17
2018-06-03T04:49:57.920Z,6.80
2018-06-03T04:52:26.374Z,6.97
2018-06-03T04:54:54.852Z,7.67
2018-06-03T04:57:23.345Z,6.93
2018-06-03T04:59:51.827Z,8.70
2018-06-03T05:02:20.298Z,7.37
2018-06-03T05:04:48.768Z,8.33
2018-06-03T05:07:17.259Z,7.57
2018-06-03T05:09:45.710Z,7.90
2018-06-03T05:12:14.170Z,8.13
2018-06-03T05:14:42.588Z,7.17
2018-06-03T05:17:11.065Z,6.60
2018-06-03T05:19:39.496Z,8.03
2018-06-03T05:22:07.970Z,8.50
2018-06-03T05:24:36.408Z,7.87
2018-06-03T05:27:04.939Z,8.03
2018-06-03T05:29:33.543Z,8.40
2018-06-03T05:32:01.705Z,7.90
2018-06-03T05:34:30.184Z,7.93
2018-06-03T05:36:58.552Z,7.50
2018-06-03T05:39:26.989Z,7.33
2018-06-03T05:41:55.430Z,7.70
2018-06-03T05:44:23.551Z,7.40
2018-06-03T05:46:52.011Z,7.70
2018-06-03T05:49:20.456Z,8.33
2018-06-03T05:51:48.906Z,7.50
2018-06-03T05:54:17.614Z,6.50
2018-06-03T05:56:46.358Z,7.77
2018-06-03T05:59:15.061Z,6.90
2018-06-03T06:01:43.552Z,6.70
2018-06-03T06:04:12.026Z,6.23
2018-06-03T06:06:40.538Z,6.83
2018-06-03T06:09:09.020Z,7.13
2018-06-03T06:11:37.731Z,6.77
2018-06-03T06:14:06.486Z,6.40
2018-06-03T06:16:34.999Z,7.20
2018-06-03T06:19:03.482Z,7.00
2018-06-03T06:21:31.997Z,6.17
2018-06-03T06:24:00.751Z,5.90
2018-06-03T06:26:29.207Z,6.03
2018-06-03T06:28:58.268Z,5.77
2018-06-03T06:31:27.247Z,6.00
2018-06-03T06:33:55.706Z,5.93
2018-06-03T06:36:24.405Z,4.83
2018-06-03T06:38:53.143Z,4.97
2018-06-03T06:41:21.576Z,5.30
2018-06-03T06:43:50.044Z,5.43
2018-06-03T06:46:18.507Z,5.10
2018-06-03T06:48:46.986Z,4.33
2018-06-03T06:51:15.460Z,4.40
2018-06-03T06:53:44.230Z,4.03
2018-06-03T06:56:12.385Z,5.00
2018-06-03T06:58:40.865Z,4.70
2018-06-03T07:01:09.398Z,4.67
2018-06-03T07:03:37.894Z,4.40
2018-06-03T07:06:05.984Z,4.47
2018-06-03T07:08:34.466Z,3.67
2018-06-03T07:11:02.902Z,4.27
2018-06-03T07:13:32.127Z,3.10
2018-06-03T07:16:00.579Z,3.63
2018-06-03T07:18:29.050Z,4.10
2018-06-03T07:20:57.543Z,3.07
2018-06-03T07:23:26.031Z,3.17
2018-06-03T07:25:54.450Z,3.70
2018-06-03T07:28:22.966Z,2.70
2018-06-03T07:30:51.438Z,3.07
2018-06-03T07:33:19.587Z,3.10
2018-06-03T07:35:48.072Z,3.07
2018-06-03T07:38:16.597Z,3.37
2018-06-03T07:40:44.707Z,3.20
2018-06-03T07:43:13.176Z,3.23
2018-06-03T07:45:41.612Z,3.20
2018-06-03T07:48:10.067Z,3.30
2018-06-03T07:50:38.520Z,3.13
2018-06-03T07:53:07.010Z,3.33
2018-06-03T07:55:35.433Z,3.77
2018-06-03T07:58:03.887Z,3.40
2018-06-03T08:00:32.432Z,2.70
2018-06-03T08:03:00.848Z,2.50
2018-06-03T08:05:29.303Z,3.03
2018-06-03T08:07:57.762Z,2.90
2018-06-03T08:10:26.209Z,3.10
2018-06-03T08:12:54.671Z,2.70
2018-06-03T08:15:23.122Z,2.60
2018-06-03T08:17:51.599Z,3.07
2018-06-03T08:20:20.087Z,2.73
2018-06-03T08:22:48.547Z,2.60
2018-06-03T08:25:17.034Z,2.70
2018-06-03T08:27:45.488Z,2.60
2018-06-03T08:30:13.958Z,3.03
2018-06-03T08:32:42.431Z,2.90
2018-06-03T08:35:10.909Z,2.97
2018-06-03T08:37:39.376Z,2.87
2018-06-03T08:40:07.537Z,3.03
2018-06-03T08:42:36.007Z,2.83
2018-06-03T08:45:04.483Z,2.27
2018-06-03T08:47:32.927Z,2.50
2018-06-03T08:50:01.404Z,2.90
2018-06-03T08:52:29.867Z,2.53
2018-06-03T08:54:58.306Z,2.40
2018-06-03T08:57:26.803Z,2.43
2018-06-03T08:59:54.960Z,2.53
2018-06-03T09:02:23.380Z,2.60
2018-06-03T09:04:51.836Z,2.47
2018-06-03T09:07:20.024Z,2.40
2018-06-03T09:09:48.478Z,2.67
2018-06-03T09:12:16.910Z,2.73
2018-06-03T09:14:45.364Z,2.40
2018-06-03T09:17:13.798Z,2.50
2018-06-03T09:19:42.247Z,2.60
2018-06-03T09:22:10.677Z,2.30
2018-06-03T09:24:39.154Z,2.10
2018-06-03T09:27:07.616Z,2.47
2018-06-03T09:29:36.113Z,2.20
2018-06-03T09:32:04.610Z,2.30
2018-06-03T09:34:32.751Z,2.50
2018-06-03T09:37:01.202Z,2.43
2018-06-03T09:39:29.681Z,2.67
2018-06-03T09:41:58.163Z,2.23
2018-06-03T09:44:26.647Z,2.17
2018-06-03T09:46:55.062Z,1.90
2018-06-03T09:49:23.486Z,2.07
2018-06-03T09:51:51.991Z,2.37
2018-06-03T09:54:20.460Z,1.90
2018-06-03T09:56:48.965Z,2.27
2018-06-03T09:59:17.486Z,2.40
2018-06-03T10:01:45.970Z,2.20
2018-06-03T10:04:14.089Z,2.13
2018-06-03T10:06:42.534Z,1.93
2018-06-03T10:09:11.040Z,1.80
2018-06-03T10:11:39.512Z,1.83
2018-06-03T10:14:07.934Z,2.23
2018-06-03T10:16:36.395Z,1.77
2018-06-03T10:19:04.894Z,1.97
2018-06-03T10:21:33.415Z,2.10
2018-06-03T10:24:01.803Z,1.70
2018-06-03T10:26:30.244Z,1.87
2018-06-03T10:28:58.679Z,1.80
2018-06-03T10:31:28.253Z,1.60
2018-06-03T10:33:56.741Z,1.70
2018-06-03T10:36:25.198Z,1.70
2018-06-03T10:38:53.635Z,1.33
2018-06-03T10:41:22.081Z,1.70
2018-06-03T10:43:50.645Z,1.70
2018-06-03T10:46:19.126Z,1.47
2018-06-03T10:48:47.559Z,1.70
2018-06-03T10:51:16.025Z,1.67
2018-06-03T10:53:44.462Z,2.10
2018-06-03T10:56:12.605Z,1.90
2018-06-03T10:58:41.064Z,1.93
2018-06-03T11:01:09.539Z,1.73
2018-06-03T11:03:37.981Z,2.00
2018-06-03T11:06:06.494Z,1.90
2018-06-03T11:08:34.960Z,1.70
2018-06-03T11:11:03.454Z,1.93
2018-06-03T11:13:31.908Z,1.60
2018-06-03T11:16:00.354Z,1.83
2018-06-03T11:18:28.768Z,1.67
2018-06-03T11:20:56.907Z,1.70
2018-06-03T11:23:25.382Z,1.83
2018-06-03T11:25:53.808Z,2.20
2018-06-03T11:28:22.271Z,2.00
2018-06-03T11:30:50.441Z,1.67
2018-06-03T11:33:18.592Z,1.53
2018-06-03T11:35:47.021Z,1.80
2018-06-03T11:38:15.749Z,1.90
2018-06-03T11:40:44.170Z,1.70
2018-06-03T11:43:12.676Z,1.90
2018-06-03T11:45:41.094Z,2.10
2018-06-03T11:48:09.576Z,2.00
2018-06-03T11:50:38.010Z,2.10
2018-06-03T11:53:06.500Z,1.93
2018-06-03T11:55:34.933Z,1.80
2018-06-03T11:58:36.238Z,1.73
2018-06-03T12:01:04.685Z,2.00
2018-06-03T12:03:33.171Z,2.23
2018-06-03T12:06:01.621Z,2.00
2018-06-03T12:08:30.112Z,1.90
2018-06-03T12:10:58.670Z,2.60
2018-06-03T12:13:27.170Z,10.93
2018-06-03T12:15:55.304Z,11.43
2018-06-03T12:18:23.768Z,4.07
2018-06-03T12:20:52.391Z,2.00
2018-06-03T12:23:20.904Z,6.57
2018-06-03T12:25:49.397Z,2.33
2018-06-03T12:28:17.852Z,2.37
2018-06-03T12:30:46.314Z,1.80
2018-06-03T12:33:14.784Z,2.03
2018-06-03T12:35:43.209Z,1.70
2018-06-03T12:38:11.662Z,2.03
2018-06-03T12:40:39.785Z,1.93
2018-06-03T12:43:08.276Z,2.10
2018-06-03T12:45:36.735Z,1.63
2018-06-03T12:48:05.439Z,1.90
2018-06-03T12:50:33.918Z,2.10
2018-06-03T12:53:02.399Z,1.77
2018-06-03T12:55:30.862Z,1.93
2018-06-03T12:57:59.342Z,1.70
2018-06-03T13:00:27.794Z,1.83
2018-06-03T13:02:56.256Z,1.70
2018-06-03T13:05:24.708Z,2.13
2018-06-03T13:07:53.170Z,1.63
2018-06-03T13:10:21.662Z,5.23
2018-06-03T13:12:50.111Z,3.97
2018-06-03T13:15:18.603Z,35.53
2018-06-03T13:17:47.054Z,4.00
2018-06-03T13:20:15.531Z,1.50
2018-06-03T13:22:43.673Z,2.60
2018-06-03T13:25:12.147Z,2.37
2018-06-03T13:27:40.606Z,3.27
2018-06-03T13:30:09.102Z,2.20
2018-06-03T13:32:37.526Z,2.00
2018-06-03T13:35:06.008Z,2.23
2018-06-03T13:37:34.724Z,1.73
2018-06-03T13:40:03.186Z,1.70
2018-06-03T13:42:31.610Z,1.50
2018-06-03T13:45:00.074Z,1.40
2018-06-03T13:47:28.574Z,1.63
2018-06-03T13:49:57.043Z,1.70
2018-06-03T13:52:25.535Z,1.93
2018-06-03T13:54:53.958Z,1.80
2018-06-03T13:57:22.683Z,1.33
2018-06-03T13:59:51.167Z,1.67
2018-06-03T14:02:19.622Z,1.60
2018-06-03T14:04:48.044Z,1.70
2018-06-03T14:07:16.733Z,1.67
2018-06-03T14:09:45.209Z,2.07
2018-06-03T14:12:13.702Z,1.40
2018-06-03T14:14:42.150Z,1.60
2018-06-03T14:17:13.927Z,1.60
2018-06-03T14:19:42.629Z,1.43
2018-06-03T14:22:11.107Z,1.60
2018-06-03T14:24:39.575Z,1.40
2018-06-03T14:27:08.039Z,1.37
2018-06-03T14:29:36.472Z,1.47
2018-06-03T14:32:04.953Z,1.30
2018-06-03T14:34:33.378Z,1.70
2018-06-03T14:37:01.825Z,1.20
2018-06-03T14:39:30.296Z,1.50
2018-06-03T14:41:58.717Z,1.30
2018-06-03T14:44:27.206Z,1.33
2018-06-03T14:46:55.653Z,1.20
2018-06-03T14:49:24.405Z,1.10
2018-06-03T14:51:53.478Z,1.57
2018-06-03T14:54:21.929Z,1.63
2018-06-03T14:56:50.354Z,1.40
2018-06-03T14:59:18.756Z,1.10
2018-06-03T15:01:47.202Z,1.10
2018-06-03T15:04:15.676Z,1.10
2018-06-03T15:06:44.105Z,1.60
2018-06-03T15:09:12.790Z,1.10
2018-06-03T15:11:41.474Z,1.33
2018-06-03T15:14:09.974Z,1.40
2018-06-03T15:16:38.794Z,1.00
2018-06-03T15:19:07.255Z,1.10
2018-06-03T15:21:35.721Z,1.20
2018-06-03T15:24:04.192Z,1.30
2018-06-03T15:26:32.657Z,1.10
2018-06-03T15:29:01.115Z,1.20
2018-06-03T15:31:29.643Z,1.30
2018-06-03T15:33:58.122Z,1.10
2018-06-03T15:36:26.568Z,1.00
2018-06-03T15:38:55.017Z,1.20
2018-06-03T15:41:23.490Z,1.30
2018-06-03T15:43:51.980Z,1.10
2018-06-03T15:46:20.397Z,1.10
2018-06-03T15:48:48.866Z,1.33
2018-06-03T15:51:17.306Z,1.20
2018-06-03T15:53:45.715Z,1.30
2018-06-03T15:56:14.219Z,1.10
2018-06-03T15:58:42.666Z,0.90
2018-06-03T16:01:11.127Z,1.40
2018-06-03T16:03:39.562Z,1.27
2018-06-03T16:06:11.295Z,1.40
2018-06-03T16:08:39.975Z,1.30
2018-06-03T16:11:08.495Z,1.30
2018-06-03T16:13:37.212Z,1.70
2018-06-03T16:16:05.699Z,1.10
2018-06-03T16:18:34.126Z,1.40
2018-06-03T16:21:02.601Z,1.57
2018-06-03T16:23:31.034Z,1.10
2018-06-03T16:25:59.503Z,1.50
2018-06-03T16:28:27.941Z,1.33
2018-06-03T16:30:56.128Z,1.97
2018-06-03T16:33:24.655Z,2.17
2018-06-03T16:35:53.066Z,1.40
2018-06-03T16:38:21.203Z,1.20
2018-06-03T16:40:49.674Z,1.40
2018-06-03T16:43:18.137Z,1.70
2018-06-03T16:45:46.606Z,1.37
2018-06-03T16:48:15.034Z,1.40
2018-06-03T16:50:43.477Z,1.60
2018-06-03T16:53:11.905Z,1.57
2018-06-03T16:55:40.058Z,1.53
2018-06-03T16:58:08.526Z,1.30
2018-06-03T17:00:37.034Z,1.67
2018-06-03T17:03:05.503Z,1.60
2018-06-03T17:05:34.024Z,1.80
2018-06-03T17:08:02.495Z,2.33
2018-06-03T17:10:30.966Z,1.50
2018-06-03T17:12:59.116Z,3.67
2018-06-03T17:15:27.567Z,1.57
2018-06-03T17:18:02.248Z,1.50
2018-06-03T17:20:30.866Z,1.90
2018-06-03T17:22:59.390Z,2.07
2018-06-03T17:25:27.870Z,1.40
2018-06-03T17:28:04.511Z,1.70
2018-06-03T17:30:32.932Z,1.70
2018-06-03T17:33:01.512Z,1.80
2018-06-03T17:35:29.682Z,3.37
2018-06-03T17:37:58.150Z,1.37
2018-06-03T17:40:26.603Z,1.33
2018-06-03T17:42:55.080Z,1.40
2018-06-03T17:45:23.550Z,1.07
2018-06-03T17:47:52.015Z,1.20
2018-06-03T17:50:20.475Z,1.20
2018-06-03T17:52:49.015Z,1.30
2018-06-03T17:55:17.462Z,1.17
2018-06-03T17:57:46.315Z,1.30
2018-06-03T18:00:14.437Z,1.20
2018-06-03T18:02:42.934Z,1.30
2018-06-03T18:05:11.367Z,1.23
2018-06-03T18:07:40.690Z,1.47
2018-06-03T18:10:09.325Z,1.50
2018-06-03T18:12:37.496Z,1.20
2018-06-03T18:15:05.958Z,1.27
2018-06-03T18:17:34.474Z,1.63
2018-06-03T18:20:02.939Z,1.43
2018-06-03T18:22:31.546Z,1.30
2018-06-03T18:25:00.040Z,1.33
2018-06-03T18:27:28.486Z,1.30
2018-06-03T18:29:57.200Z,1.20
2018-06-03T18:32:27.202Z,1.37
2018-06-03T18:34:56.397Z,1.73
2018-06-03T18:37:26.617Z,1.40
2018-06-03T18:39:55.690Z,1.50
2018-06-03T18:42:24.287Z,1.70
2018-06-03T18:44:53.488Z,1.53
2018-06-03T18:47:22.694Z,2.37
2018-06-03T18:49:52.497Z,1.30
2018-06-03T18:52:21.694Z,1.60
2018-06-03T18:54:50.827Z,1.77
2018-06-03T18:57:19.852Z,1.67
2018-06-03T18:59:50.065Z,1.90
2018-06-03T19:02:18.498Z,1.50
2018-06-03T19:04:46.953Z,1.87
2018-06-03T19:07:15.429Z,1.70
2018-06-03T19:09:43.906Z,2.13
2018-06-03T19:12:12.346Z,1.67
2018-06-03T19:14:40.833Z,1.87
2018-06-03T19:17:09.940Z,1.50
2018-06-03T19:19:38.389Z,1.80
2018-06-03T19:22:06.849Z,1.63
2018-06-03T19:24:35.306Z,1.53
2018-06-03T19:27:03.753Z,1.90
2018-06-03T19:29:32.234Z,1.80
2018-06-03T19:32:00.719Z,2.40
2018-06-03T19:34:29.234Z,2.30
2018-06-03T19:36:58.726Z,1.80
2018-06-03T19:39:27.189Z,1.60
2018-06-03T19:41:55.695Z,1.43
2018-06-03T19:44:24.154Z,1.80
2018-06-03T19:46:52.631Z,1.90
2018-06-03T19:49:21.107Z,2.00
2018-06-03T19:51:49.569Z,2.43
2018-06-03T19:54:18.032Z,2.20
2018-06-03T19:56:46.531Z,2.37
2018-06-03T19:59:14.988Z,2.33
2018-06-03T20:01:43.471Z,2.27
2018-06-03T20:04:11.918Z,1.93
2018-06-03T20:06:40.401Z,2.00
2018-06-03T20:09:08.871Z,1.90
2018-06-03T20:11:37.038Z,2.57
2018-06-03T20:14:05.557Z,1.97
2018-06-03T20:16:34.020Z,2.40
2018-06-03T20:19:02.181Z,2.07
2018-06-03T20:21:30.681Z,2.50
2018-06-03T20:23:59.143Z,2.57
2018-06-03T20:26:27.633Z,2.80
2018-06-03T20:28:56.067Z,2.50
2018-06-03T20:31:24.538Z,2.17
2018-06-03T20:33:53.026Z,2.70
2018-06-03T20:36:21.487Z,2.60
2018-06-03T20:38:49.986Z,2.70
2018-06-03T20:41:18.521Z,2.53
2018-06-03T20:43:46.968Z,2.30
2018-06-03T20:46:15.413Z,2.77
2018-06-03T20:48:43.858Z,2.63
2018-06-03T20:51:11.975Z,2.57
2018-06-03T20:53:40.446Z,2.80
2018-06-03T20:56:08.870Z,2.90
2018-06-03T20:58:37.350Z,2.63
2018-06-03T21:01:06.395Z,2.67
2018-06-03T21:03:34.851Z,2.70
2018-06-03T21:06:03.323Z,3.07
2018-06-03T21:08:31.791Z,3.13
2018-06-03T21:11:00.262Z,2.83
2018-06-03T21:13:28.723Z,2.80
2018-06-03T21:15:57.187Z,2.80
2018-06-03T21:18:25.637Z,3.23
2018-06-03T21:20:54.081Z,2.77
2018-06-03T21:23:22.531Z,3.17
2018-06-03T21:25:51.040Z,3.20
2018-06-03T21:28:19.502Z,3.20
2018-06-03T21:30:47.974Z,3.00
2018-06-03T21:33:16.510Z,3.30
2018-06-03T21:35:44.965Z,3.77
2018-06-03T21:38:13.418Z,3.17
2018-06-03T21:40:41.899Z,3.67
2018-06-03T21:43:10.337Z,3.50
2018-06-03T21:45:38.809Z,3.10
2018-06-03T21:48:07.241Z,3.43
2018-06-03T21:50:35.695Z,3.43
2018-06-03T21:53:04.156Z,3.20
2018-06-03T21:55:32.629Z,3.67
2018-06-03T21:58:01.087Z,3.63
2018-06-03T22:00:29.557Z,4.20
2018-06-03T22:02:58.014Z,3.20
2018-06-03T22:05:26.632Z,3.77
2018-06-03T22:07:54.767Z,3.83
2018-06-03T22:10:23.274Z,3.73
2018-06-03T22:12:51.761Z,3.37
2018-06-03T22:15:20.228Z,3.37
2018-06-03T22:17:48.718Z,3.10
2018-06-03T22:20:17.166Z,3.50
2018-06-03T22:22:45.623Z,3.60
2018-06-03T22:25:14.099Z,4.37
2018-06-03T22:27:42.546Z,3.40
2018-06-03T22:30:11.021Z,3.90
2018-06-03T22:32:39.548Z,3.70
2018-06-03T22:35:08.062Z,3.90
2018-06-03T22:37:36.573Z,3.53
2018-06-03T22:40:05.100Z,3.87
2018-06-03T22:42:33.546Z,4.53
2018-06-03T22:45:03.856Z,3.90
2018-06-03T22:47:32.324Z,4.13
2018-06-03T22:50:00.785Z,4.10
2018-06-03T22:52:29.240Z,3.63
2018-06-03T22:54:58.174Z,3.90
2018-06-03T22:57:45.294Z,3.77
2018-06-03T23:00:22.083Z,4.07
2018-06-03T23:02:55.893Z,4.00
2018-06-03T23:05:24.099Z,4.03
2018-06-03T23:07:52.904Z,4.80
2018-06-03T23:10:21.654Z,3.77
2018-06-03T23:12:50.079Z,4.33
2018-06-03T23:15:18.590Z,4.53
2018-06-03T23:17:47.059Z,5.30
2018-06-03T23:20:15.570Z,4.63
2018-06-03T23:22:44.006Z,5.00
2018-06-03T23:25:12.490Z,4.53
2018-06-03T23:27:40.986Z,4.50
2018-06-03T23:30:09.478Z,4.40
2018-06-03T23:32:37.987Z,4.47
2018-06-03T23:35:06.406Z,4.67
2018-06-03T23:37:34.891Z,4.73
2018-06-03T23:40:03.403Z,5.17
2018-06-03T23:42:31.865Z,4.67
2018-06-03T23:45:00.322Z,4.80
2018-06-03T23:47:28.790Z,4.57
2018-06-03T23:49:57.270Z,5.10
2018-06-03T23:52:25.724Z,4.90
2018-06-03T23:54:54.182Z,4.50
2018-06-03T23:57:22.718Z,4.80
2018-06-03T23:59:51.162Z,5.30
